Latest Weather Observations for Cessnock Airport

IDN60801

Issued at 9:52 pm EST Saturday 18 August 2018 (issued every 10 minutes, with the page automatically refreshed every 10 minutes)

About weather observations | Map of weather stations | Latest weather observations for NSW | Other Formats
Station Details ID: 061260 Name: CESSNOCK AIRPORT AWS Lat: -32.79 Lon: 151.34 Height: 61.0 m
Data from the previous 72 hours. | See also: Recent months at Cessnock Airport
Date/Time
EST
Temp
°C
App
Temp
°C
Dew
Point
°C
Rel
Hum
%
Delta-T
°C
Wind Press
QNH
hPa
Press
MSL
hPa
Rain since
9am
mm
Dir  Spd
km/h
Gust
km/h
Spd
kts
Gust
kts
18/09:30pm 14.6 7.8 -1.9 32 6.7 W 24 39 13 21 1012.6 1012.6 0.0
18/09:25pm 15.0 7.4 -2.0 31 6.9 WSW 28 46 15 25 1012.5 1012.5 0.0
18/09:17pm 15.2 7.6 -1.8 31 6.9 WSW 28 46 15 25 1012.4 1012.4 0.0
18/09:00pm 14.4 9.0 -1.2 34 6.4 W 17 28 9 15 1012.4 1012.4 0.0
18/08:30pm 14.8 9.1 -0.5 35 6.4 WSW 19 32 10 17 1012.1 1012.1 0.0
18/08:00pm 14.9 9.4 0.4 37 6.2 WSW 19 30 10 16 1011.8 1011.8 0.0
18/07:30pm 15.5 9.0 2.7 42 5.8 WSW 26 37 14 20 1011.4 1011.4 0.0
18/07:00pm 15.5 10.8 3.0 43 5.7 SW 17 28 9 15 1011.0 1011.0 0.0
18/06:30pm 16.9 11.3 1.0 34 7.0 WSW 20 43 11 23 1010.1 1010.1 0.0
18/06:00pm 18.3 12.9 -1.0 27 8.3 W 17 30 9 16 1009.4 1009.4 0.0
18/05:30pm 18.8 13.1 -0.6 27 8.4 W 19 30 10 16 1008.9 1008.9 0.0
18/05:00pm 19.9 13.9 -1.8 23 9.3 W 20 41 11 22 1008.2 1008.2 0.0
18/04:30pm 20.5 14.4 -2.5 21 9.7 WNW 20 37 11 20 1007.7 1007.7 0.0
18/04:05pm 20.7 13.0 -3.0 20 9.9 NW 28 48 15 26 1007.6 1007.6 0.0
18/04:00pm 20.7 13.4 -3.0 20 10.0 NW 26 52 14 28 1007.6 1007.6 0.0
18/03:45pm 21.2 13.5 -2.6 20 10.1 NW 28 46 15 25 1007.3 1007.3 0.0
18/03:30pm 21.2 13.2 -2.6 20 10.1 NW 30 43 16 23 1007.4 1007.4 0.0
18/03:00pm 22.0 14.8 -2.0 20 10.4 WNW 26 39 14 21 1007.7 1007.7 0.0
18/02:41pm 21.6 13.9 -3.0 19 10.4 NW 28 50 15 27 1007.6 1007.6 0.0
18/02:30pm 22.0 15.5 -2.7 19 10.6 NW 22 43 12 23 1007.8 1007.8 0.0
18/02:14pm 21.5 13.9 -2.4 20 10.2 NW 28 50 15 27 1008.0 1008.0 0.0
18/02:00pm 21.7 14.1 -2.2 20 10.3 NW 28 43 15 23 1008.1 1008.1 0.0
18/01:30pm 21.2 13.2 -2.0 21 10.0 NW 30 50 16 27 1008.5 1008.5 0.0
18/01:00pm 20.5 12.2 -1.9 22 9.6 NW 32 57 17 31 1009.1 1009.1 0.0
18/12:36pm 20.4 12.9 -1.4 23 9.4 NW 28 48 15 26 1009.6 1009.6 0.0
18/12:30pm 20.4 13.7 -1.4 23 9.4 NW 24 37 13 20 1009.9 1009.9 0.0
18/12:00pm 19.2 11.7 -1.3 25 8.8 NW 28 43 15 23 1010.6 1010.6 0.0
18/11:30am 19.2 13.4 -1.3 25 8.8 NW 19 35 10 19 1011.6 1011.6 0.0
18/11:00am 18.3 11.4 0.0 29 8.0 NNW 26 39 14 21 1012.2 1012.2 0.0
18/10:30am 17.3 10.2 -0.9 29 7.7 NW 26 41 14 22 1012.8 1012.8 0.0
18/10:00am 16.1 9.4 -1.0 31 7.2 NNW 24 35 13 19 1013.2 1013.2 0.0
18/09:30am 15.0 10.2 0.1 36 6.3 NW 15 26 8 14 1013.7 1013.7 0.0
18/09:00am 12.3 6.6 -0.6 41 5.2 NW 19 30 10 16 1014.3 1014.3 0.0
18/08:30am 11.0 5.1 -1.1 43 4.8 NW 20 30 11 16 1014.4 1014.4 0.0
18/08:00am 11.5 5.8 -0.9 42 5.0 NW 19 30 10 16 1014.3 1014.3 0.0
18/07:30am 9.4 4.8 -0.8 49 4.0 NW 13 19 7 10 1014.3 1014.3 0.0
18/07:00am 7.6 3.4 -1.1 54 3.3 NW 11 17 6 9 1014.3 1014.3 0.0
18/06:30am 7.1 2.8 -1.3 55 3.2 NW 11 15 6 8 1014.2 1014.2 0.0
18/06:00am 6.8 2.5 -1.3 56 3.1 NNW 11 17 6 9 1014.2 1014.2 0.0
18/05:30am 7.5 2.6 -0.5 57 3.1 NNW 15 26 8 14 1014.0 1014.0 0.0
18/05:20am 5.1 2.1 1.8 79 1.3 NNW 7 19 4 10 1014.0 1014.0 0.0
18/05:00am 0.1 -3.9 -2.0 86 0.7 NNW 9 13 5 7 1014.0 1014.0 0.0
18/04:30am -1.5 -5.0 -2.8 91 0.4 ENE 6 7 3 4 1013.9 1013.9 0.0
18/04:00am -2.0 -5.2 -3.6 89 0.4 SSE 4 6 2 3 1013.9 1013.9 0.0
18/03:30am -1.3 -3.7 -3.0 88 0.5 CALM 0 0 0 0 1014.0 1014.0 0.0
18/03:00am -1.1 -3.5 -3.0 87 0.6 CALM 0 0 0 0 1014.0 1014.0 0.0
18/02:30am -0.7 -3.0 -2.6 87 0.6 CALM 0 6 0 3 1014.2 1014.2 0.0
18/02:00am -0.4 -2.7 -2.6 85 0.7 CALM 0 0 0 0 1014.2 1014.2 0.0
18/01:30am -0.1 -2.4 -2.3 85 0.7 CALM 0 0 0 0 1014.4 1014.4 0.0
18/01:00am 0.4 -1.9 -2.3 82 0.9 CALM 0 0 0 0 1014.8 1014.8 0.0
18/12:30am 0.9 -1.4 -2.0 81 1.1 CALM 0 0 0 0 1014.7 1014.7 0.0
18/12:00am 2.1 -0.1 -1.2 79 1.2 CALM 0 0 0 0 1015.0 1015.0 0.0
 
Date/Time
EST
Temp
°C
App
Temp
°C
Dew
Point
°C
Rel
Hum
%
Delta-T
°C
Wind Press
QNH
hPa
Press
MSL
hPa
Rain since
9am
mm
Dir  Spd
km/h
Gust
km/h
Spd
kts
Gust
kts
17/11:30pm 2.7 0.6 -1.1 76 1.4 CALM 0 0 0 0 1015.1 1015.1 0.0
17/11:00pm 3.2 1.0 -1.2 73 1.6 CALM 0 0 0 0 1015.5 1015.5 0.0
17/10:30pm 3.6 1.0 -1.5 69 1.8 N 2 7 1 4 1015.8 1015.8 0.0
17/10:00pm 4.5 1.6 -1.1 67 2.1 N 4 9 2 5 1015.8 1015.8 0.0
17/09:30pm 5.7 2.5 -0.6 64 2.4 NNE 6 7 3 4 1015.8 1015.8 0.0
17/09:00pm 6.2 2.5 -0.3 63 2.5 NNE 9 11 5 6 1015.5 1015.5 0.0
17/08:30pm 6.6 3.6 -2.0 54 3.2 NNW 4 7 2 4 1015.1 1015.1 0.0
17/08:00pm 9.3 5.3 -2.0 45 4.3 SW 9 11 5 6 1014.9 1014.9 0.0
17/07:30pm 10.4 6.1 -1.6 43 4.7 SW 11 15 6 8 1014.5 1014.5 0.0
17/07:00pm 9.4 5.9 -1.6 46 4.2 SW 7 9 4 5 1014.1 1014.1 0.0
17/06:30pm 11.0 7.4 -2.4 39 5.2 WSW 7 9 4 5 1013.7 1013.7 0.0
17/06:00pm 12.8 9.3 -2.6 34 6.0 WSW 6 9 3 5 1013.0 1013.0 0.0
17/05:30pm 14.7 10.6 -2.7 30 6.9 WSW 9 11 5 6 1012.6 1012.6 0.0
17/05:00pm 16.6 12.1 -3.0 26 7.9 WSW 11 20 6 11 1012.4 1012.4 0.0
17/04:30pm 18.1 13.0 -2.2 25 8.4 WSW 15 24 8 13 1012.1 1012.1 0.0
17/04:00pm 18.4 13.2 -2.5 24 8.7 WSW 15 22 8 12 1011.8 1011.8 0.0
17/03:30pm 17.6 11.7 -2.6 25 8.3 WSW 19 30 10 16 1011.7 1011.7 0.0
17/03:00pm 18.8 14.4 -2.7 23 8.9 WNW 11 20 6 11 1011.9 1011.9 0.0
17/02:30pm 19.3 14.2 -1.7 24 8.9 WNW 15 30 8 16 1011.9 1011.9 0.0
17/02:00pm 18.3 13.1 -2.6 24 8.6 WSW 15 24 8 13 1012.0 1012.0 0.0
17/01:30pm 18.5 12.9 -3.0 23 8.8 WNW 17 28 9 15 1012.5 1012.5 0.0
17/01:00pm 18.0 11.8 -2.8 24 8.5 W 20 35 11 19 1012.8 1012.8 0.0
17/12:30pm 17.4 12.3 -2.3 26 8.1 WNW 15 26 8 14 1013.2 1013.2 0.0
17/12:00pm 16.6 10.5 -2.5 27 7.8 WSW 20 30 11 16 1013.8 1013.8 0.0
17/11:30am 16.2 10.0 -2.8 27 7.7 WSW 20 32 11 17 1014.2 1014.2 0.0
17/11:00am 16.4 11.3 -1.7 29 7.5 WSW 15 24 8 13 1014.6 1014.6 0.0
17/10:30am 15.8 11.0 -2.2 29 7.3 WSW 13 24 7 13 1015.1 1015.1 0.0
17/10:00am 14.4 11.3 -0.1 37 6.1 E 6 11 3 6 1015.3 1015.3 0.0
17/09:30am 13.4 10.6 2.9 49 4.7 NNE 7 11 4 6 1015.8 1015.8 0.0
17/09:00am 11.1 8.5 4.1 62 3.1 NNE 7 9 4 5 1016.1 1016.1 0.0
17/08:30am 9.3 6.8 3.9 69 2.4 NE 6 9 3 5 1016.4 1016.4 0.0
17/08:00am 7.6 6.4 4.6 81 1.3 CALM 0 6 0 3 1016.3 1016.3 0.0
17/07:30am 3.8 2.3 2.9 94 0.4 CALM 0 0 0 0 1015.8 1015.8 0.0
17/07:00am 1.6 -0.3 0.7 94 0.3 CALM 0 2 0 1 1015.4 1015.4 0.0
17/06:30am 2.2 0.4 1.3 94 0.3 CALM 0 0 0 0 1015.1 1015.1 0.0
17/06:00am 2.1 0.2 0.6 90 0.6 CALM 0 0 0 0 1014.8 1014.8 0.0
17/05:30am 3.0 0.1 1.4 89 0.6 N 6 7 3 4 1014.5 1014.5 0.0
17/05:00am 3.9 1.8 1.9 87 0.8 N 2 7 1 4 1014.3 1014.3 0.0
17/04:30am 5.7 2.6 3.5 86 0.9 N 9 13 5 7 1014.0 1014.0 0.0
17/04:00am 4.1 1.2 2.5 89 0.6 N 7 11 4 6 1013.9 1013.9 0.0
17/03:30am 4.9 2.6 2.8 86 0.9 NE 4 7 2 4 1013.9 1013.9 0.0
17/03:00am 6.2 3.3 2.8 79 1.4 NNW 7 13 4 7 1013.9 1013.9 0.0
17/02:30am 5.6 3.1 3.6 87 0.8 E 6 7 3 4 1014.0 1014.0 0.0
17/02:00am 6.2 3.4 3.2 81 1.3 NNE 7 9 4 5 1014.2 1014.2 0.0
17/01:30am 6.3 4.6 4.1 86 0.9 ESE 2 7 1 4 1014.2 1014.2 0.0
17/01:00am 6.4 5.3 4.9 90 0.7 CALM 0 0 0 0 1014.3 1014.3 0.0
17/12:30am 5.7 4.4 3.9 88 0.8 CALM 0 0 0 0 1014.2 1014.2 0.0
17/12:00am 5.5 4.1 3.8 89 0.7 CALM 0 0 0 0 1014.2 1014.2 0.0
 
Date/Time
EST
Temp
°C
App
Temp
°C
Dew
Point
°C
Rel
Hum
%
Delta-T
°C
Wind Press
QNH
hPa
Press
MSL
hPa
Rain since
9am
mm
Dir  Spd
km/h
Gust
km/h
Spd
kts
Gust
kts
16/11:30pm 5.1 3.7 3.4 89 0.7 CALM 0 6 0 3 1014.3 1014.3 0.0
16/11:00pm 5.0 3.6 3.3 89 0.7 CALM 0 7 0 4 1014.3 1014.3 0.0
16/10:30pm 5.0 3.2 3.3 89 0.7 WSW 2 9 1 5 1014.2 1014.2 0.0
16/10:00pm 5.3 3.5 3.3 87 0.8 SW 2 9 1 5 1014.1 1014.1 0.0
16/09:30pm 6.1 4.8 3.9 86 0.9 CALM 0 0 0 0 1014.0 1014.0 0.0
16/09:00pm 6.3 4.0 2.9 79 1.4 SW 4 7 2 4 1013.5 1013.5 0.0
16/08:30pm 8.0 4.7 4.6 79 1.5 WSW 11 13 6 7 1013.2 1013.2 0.0
16/08:00pm 6.9 4.3 3.2 77 1.6 WSW 6 7 3 4 1012.7 1012.7 0.0
16/07:30pm 8.3 6.3 4.3 76 1.8 WSW 4 7 2 4 1012.5 1012.5 0.0
16/07:00pm 10.8 8.1 5.6 70 2.4 WSW 9 11 5 6 1012.2 1012.2 0.0
16/06:30pm 12.7 11.4 5.8 63 3.2 SW 2 7 1 4 1011.8 1011.8 0.0
16/06:00pm 14.7 12.3 5.2 53 4.5 SE 7 9 4 5 1011.2 1011.2 0.0
16/05:30pm 16.3 12.5 5.6 49 5.2 ESE 15 20 8 11 1010.5 1010.5 0.0
16/05:00pm 17.4 12.8 6.6 49 5.4 ESE 20 24 11 13 1009.8 1009.8 0.0
16/04:30pm 19.0 14.9 7.8 48 5.7 E 19 26 10 14 1009.3 1009.3 0.0
16/04:00pm 20.8 16.0 7.4 42 6.9 ENE 22 28 12 15 1008.8 1008.8 0.0
16/03:30pm 24.1 18.8 -3.3 16 11.8 WSW 15 24 8 13 1008.3 1008.3 0.0
16/03:00pm 24.7 20.1 -1.2 18 11.7 WSW 13 20 7 11 1008.3 1008.3 0.0
16/02:30pm 24.7 18.9 -1.2 18 11.7 WSW 19 32 10 17 1008.1 1008.1 0.0
16/02:00pm 24.5 18.2 -1.3 18 11.6 SW 22 33 12 18 1008.1 1008.1 0.0
16/01:30pm 24.9 18.5 -1.8 17 11.9 WSW 22 39 12 21 1008.1 1008.1 0.0
16/01:00pm 24.8 18.4 -1.9 17 11.9 WSW 22 41 12 22 1008.0 1008.0 0.0
16/12:30pm 23.4 17.7 -0.8 20 10.9 WNW 19 28 10 15 1008.4 1008.4 0.0
16/12:00pm 24.0 19.1 -0.3 20 11.1 NW 15 32 8 17 1008.7 1008.7 0.0
16/11:30am 22.7 17.5 -0.1 22 10.3 SW 17 39 9 21 1009.4 1009.4 0.0
16/11:00am 23.3 17.9 1.0 23 10.4 WNW 19 43 10 23 1009.7 1009.7 0.0
16/10:30am 22.7 18.3 0.5 23 10.2 NNW 13 20 7 11 1010.1 1010.1 0.0
16/10:00am 20.9 15.5 -1.0 23 9.6 NNW 17 26 9 14 1010.3 1010.3 0.0
16/09:30am 20.2 16.0 -1.0 24 9.2 NNW 11 15 6 8 1010.6 1010.6 0.0
16/09:00am 18.7 14.4 -1.7 25 8.6 NNW 11 19 6 10 1010.6 1010.6 0.0
16/08:30am 16.6 12.6 -2.0 28 7.7 N 9 13 5 7 1010.6 1010.6 0.0
16/08:00am 16.1 12.1 -1.9 29 7.4 ENE 9 13 5 7 1010.6 1010.6 0.0
16/07:30am 12.1 9.2 -1.1 40 5.3 NNE 4 7 2 4 1010.4 1010.4 0.0
16/07:00am 11.8 8.7 -2.8 36 5.6 NNE 4 7 2 4 1010.3 1010.3 0.0
16/06:30am 14.2 10.6 -3.6 29 6.9 NNW 6 11 3 6 1010.0 1010.0 0.0
16/06:00am 14.6 10.4 -3.7 28 7.1 N 9 15 5 8 1009.8 1009.8 0.0
16/05:30am 15.4 10.9 -3.5 27 7.4 NNW 11 15 6 8 1009.7 1009.7 0.0
16/05:00am 14.8 9.9 -3.5 28 7.2 N 13 15 7 8 1009.3 1009.3 0.0
16/04:30am 15.8 11.2 -4.2 25 7.8 NNW 11 15 6 8 1009.3 1009.3 0.0
16/04:00am 16.0 10.6 -4.5 24 8.0 N 15 20 8 11 1009.3 1009.3 0.0
16/03:30am 16.2 11.6 -4.4 24 8.0 N 11 17 6 9 1009.3 1009.3 0.0
16/03:00am 16.6 11.1 -5.2 22 8.4 NNW 15 22 8 12 1009.0 1009.0 0.0
16/02:30am 16.7 12.0 -5.1 22 8.4 NNW 11 20 6 11 1009.1 1009.1 0.0
16/02:00am 16.7 11.6 -5.1 22 8.4 NNW 13 24 7 13 1009.2 1009.2 0.0
16/01:30am 16.8 10.9 -5.6 21 8.6 NNW 17 30 9 16 1009.5 1009.5 0.0
16/01:00am 16.4 10.9 -5.3 22 8.3 NNW 15 22 8 12 1009.7 1009.7 0.0
16/12:30am 16.4 10.8 -6.0 21 8.5 N 15 24 8 13 1010.3 1010.3 0.0
16/12:00am 16.3 10.7 -6.0 21 8.4 N 15 24 8 13 1010.6 1010.6 0.0
 
Date/Time
EST
Temp
°C
App
Temp
°C
Dew
Point
°C
Rel
Hum
%
Delta-T
°C
Wind Press
QNH
hPa
Press
MSL
hPa
Rain since
9am
mm
Dir  Spd
km/h
Gust
km/h
Spd
kts
Gust
kts
15/11:30pm 16.6 10.7 -5.8 21 8.5 NNW 17 28 9 15 1010.5 1010.5 0.0
15/11:00pm 16.7 10.4 -6.3 20 8.7 NNW 19 30 10 16 1010.2 1010.2 0.0
15/10:30pm 16.7 10.7 -6.3 20 8.7 NNW 17 26 9 14 1010.6 1010.6 0.0
15/10:00pm 16.8 11.6 -6.3 20 8.7 NNW 13 20 7 11 1010.7 1010.7 0.0

Other Formats:

Comma delimited format used in spreadsheet applications
http://www.bom.gov.au/fwo/IDN60801/IDN60801.95771.axf

JavaScript Object Notation format (JSON) in row-major order
http://www.bom.gov.au/fwo/IDN60801/IDN60801.95771.json